MRLB

Details ICAO MRLB (LIR)
Name Daniel Oduber Quiros Intl
Region Costa Rica
Timezone America/Costa_Rica (UTC-6.0)
Plans Departing 68
Arriving 98
Stats Elevation 270 ft / 82 m (AMSL)
Location 10.593289° -85.544410°
Runways 1
Magnetic Variation 1.104° W
Sunrise 2018-05-23 11:20:37 UTC / 2018-05-23 05:20:37 Local
Sunset 2018-05-24 00:00:09 UTC / 2018-05-23 18:00:09 Local
Advertisement - Login to hide

Runways

ID Width Length Bearing (true) Bearing (mag) Surface Threshold Offset Overrun Length
07 148 ft / 45 m 9,068 ft / 2,764 m 70.05° 71.15° Asphalt 0 ft / 0 m 0 ft / 0 m
25 148 ft / 45 m 9,068 ft / 2,764 m 250.05° 251.15° Asphalt 0 ft / 0 m 0 ft / 0 m

Map

Weather


0- 5 10 15 20 25 30 35+ Temperature / ° C

Clouds and Precipitation
Forecast for 2018-05-23 18:00 UTC. Updated 5 hours ago

Ground ~20,000 ft ~40,000 ft Winds

METAR

MRLB 232200Z 30005KT 9999 FEW040 SCT100 26/24 A2982 NOSIG

TAF

Not found

Frequencies

Ground 121.70 MHz GND
Approach 119.80 MHz LIBERIA APP
Tower 118.80 MHz LIBERIA TWR
Warning: Do not use this data for real-world aviation or navigation. No guarantee of current accuracy is given.